Time;durP1;ratioP1;P1;durP2;ratioP2;P2;SDS_P1;SDS_P2;PMS_P1;PMS_P2;Temp;Humidity;BMP_temperature;BMP_pressure;BME280_temperature;BME280_humidity;BME280_pressure;Samples;Min_cycle;Max_cycle;Signal;HPM_P1;HPM_P2
2021/10/31 00:01:18;;;;;;;443.47;421.73;;;10.20;99.90;;;;;;4378231;32;20187;-63
2021/10/31 00:03:44;;;;;;;435.90;414.30;;;10.20;99.90;;;;;;4375274;32;20565;-63
2021/10/31 00:06:13;;;;;;;442.27;419.63;;;10.20;99.90;;;;;;4384829;32;20188;-62
2021/10/31 00:08:40;;;;;;;438.77;416.57;;;10.10;99.90;;;;;;4389783;32;20612;-62
2021/10/31 00:11:08;;;;;;;440.80;417.80;;;10.10;99.90;;;;;;4390053;32;20167;-63
2021/10/31 00:13:38;;;;;;;432.23;409.90;;;10.10;99.90;;;;;;4390582;32;20183;-62
2021/10/31 00:16:06;;;;;;;443.90;421.90;;;10.10;99.90;;;;;;4391391;32;20168;-62
2021/10/31 00:18:33;;;;;;;447.47;424.70;;;10.10;99.90;;;;;;4390426;32;20155;-62
2021/10/31 00:21:00;;;;;;;467.23;443.93;;;10.00;99.90;;;;;;4375638;32;20185;-62
2021/10/31 00:23:30;;;;;;;459.53;436.33;;;10.00;99.90;;;;;;4375637;32;20473;-63
2021/10/31 00:26:02;;;;;;;467.00;443.93;;;10.00;99.90;;;;;;4374975;32;20171;-62
2021/10/31 00:28:32;;;;;;;456.57;434.03;;;10.00;99.90;;;;;;4386910;32;20189;-62
2021/10/31 00:31:10;;;;;;;457.50;433.70;;;10.10;99.90;;;;;;4381704;32;20157;-62
2021/10/31 00:33:37;;;;;;;442.97;420.37;;;10.00;99.90;;;;;;4377992;32;20204;-62
2021/10/31 00:36:04;;;;;;;462.00;439.37;;;10.00;99.90;;;;;;4377686;32;20149;-62
2021/10/31 00:38:34;;;;;;;480.10;455.60;;;10.00;99.90;;;;;;4377472;32;20167;-62
2021/10/31 00:41:03;;;;;;;461.60;437.87;;;10.00;99.90;;;;;;4384030;32;20164;-62
2021/10/31 00:43:31;;;;;;;459.27;435.63;;;10.00;99.90;;;;;;4382429;32;20652;-62
2021/10/31 00:46:02;;;;;;;468.90;444.67;;;10.00;99.90;;;;;;4378444;32;20206;-62
2021/10/31 00:48:32;;;;;;;449.97;426.97;;;10.00;99.90;;;;;;4378221;32;20164;-62
2021/10/31 00:51:03;;;;;;;456.87;433.63;;;10.00;99.90;;;;;;4377683;32;20161;-62
2021/10/31 00:53:51;;;;;;;444.77;421.87;;;10.00;99.90;;;;;;4377195;32;20156;-63
2021/10/31 00:56:18;;;;;;;454.93;431.80;;;10.00;99.90;;;;;;4376856;32;20457;-62
2021/10/31 00:58:46;;;;;;;461.53;437.50;;;10.00;99.90;;;;;;4391174;32;20224;-62
2021/10/31 01:01:16;;;;;;;454.37;431.23;;;10.20;99.90;;;;;;4390156;32;20192;-63
2021/10/31 01:03:48;;;;;;;451.40;428.13;;;10.00;99.90;;;;;;4377162;32;20161;-62
2021/10/31 01:06:43;;;;;;;460.43;436.53;;;10.00;99.90;;;;;;4378550;32;20172;-62
2021/10/31 01:09:20;;;;;;;435.13;413.57;;;10.00;99.90;;;;;;4359916;33;20164;-62
2021/10/31 01:12:02;;;;;;;441.90;420.20;;;10.00;99.90;;;;;;4359356;32;20168;-62
2021/10/31 01:14:55;;;;;;;434.97;412.90;;;10.00;99.90;;;;;;4346477;33;20567;-62
2021/10/31 01:17:46;;;;;;;429.10;407.73;;;10.00;99.90;;;;;;4346008;33;20544;-62
2021/10/31 01:20:26;;;;;;;430.00;408.10;;;9.90;99.90;;;;;;4355053;33;20259;-62
2021/10/31 01:23:28;;;;;;;450.23;427.80;;;9.90;99.90;;;;;;4359811;32;20179;-62
2021/10/31 01:26:23;;;;;;;444.27;421.27;;;9.90;99.90;;;;;;4329765;33;20540;-62
2021/10/31 01:29:04;;;;;;;435.97;414.60;;;9.80;99.90;;;;;;4316587;33;20198;-62
2021/10/31 01:31:39;;;;;;;433.73;412.60;;;9.80;99.90;;;;;;4316842;33;20323;-62
2021/10/31 01:34:24;;;;;;;433.33;411.30;;;9.80;99.90;;;;;;4315647;33;20165;-62
2021/10/31 01:37:00;;;;;;;442.83;420.30;;;9.80;99.90;;;;;;4317176;33;20184;-62
2021/10/31 01:39:32;;;;;;;460.90;437.13;;;9.80;99.90;;;;;;4330604;33;20231;-62
2021/10/31 01:42:16;;;;;;;452.07;429.63;;;9.80;99.90;;;;;;4330041;33;20175;-62
2021/10/31 01:44:52;;;;;;;448.50;426.00;;;9.80;99.90;;;;;;4330623;33;20161;-62
2021/10/31 01:47:36;;;;;;;454.07;431.80;;;9.80;99.90;;;;;;4343167;33;20221;-62
2021/10/31 01:50:14;;;;;;;442.17;420.00;;;9.80;99.90;;;;;;4346183;33;20185;-63
2021/10/31 01:52:47;;;;;;;460.17;437.17;;;9.80;99.90;;;;;;4347178;33;20171;-62
2021/10/31 01:55:25;;;;;;;430.07;408.63;;;9.80;99.90;;;;;;4360381;32;20181;-62
2021/10/31 01:57:57;;;;;;;446.03;422.67;;;9.80;99.90;;;;;;4359767;32;20206;-62
2021/10/31 02:00:30;;;;;;;440.20;418.27;;;9.70;99.90;;;;;;4359247;32;20193;-62
2021/10/31 02:03:02;;;;;;;426.47;404.93;;;9.70;99.90;;;;;;4375302;32;20175;-62
2021/10/31 02:05:34;;;;;;;442.77;420.27;;;9.70;99.90;;;;;;4376899;32;20203;-62
2021/10/31 02:08:13;;;;;;;443.83;422.20;;;9.70;99.90;;;;;;4376757;32;20175;-62
2021/10/31 02:10:48;;;;;;;421.93;400.30;;;9.70;99.90;;;;;;4390596;32;20499;-62
2021/10/31 02:17:18;;;;;;;428.77;407.43;;;9.70;99.90;;;;;;4389267;32;20614;-62
2021/10/31 02:19:48;;;;;;;442.90;421.00;;;9.70;99.90;;;;;;4392733;32;20162;-62
2021/10/31 02:22:19;;;;;;;427.33;405.60;;;9.70;99.90;;;;;;4392742;32;20171;-62
2021/10/31 02:24:47;;;;;;;439.17;417.00;;;9.70;99.90;;;;;;4389449;32;20160;-62
2021/10/31 02:27:17;;;;;;;441.23;419.00;;;9.70;99.90;;;;;;4390765;32;20173;-62
2021/10/31 02:29:49;;;;;;;446.17;423.50;;;9.70;99.90;;;;;;4391009;32;20163;-62
2021/10/31 02:32:16;;;;;;;432.73;411.03;;;9.80;99.90;;;;;;4391434;32;20594;-62
2021/10/31 02:34:43;;;;;;;428.30;407.20;;;9.80;99.90;;;;;;4391087;32;20162;-62
2021/10/31 02:37:11;;;;;;;457.00;433.90;;;9.80;99.90;;;;;;4392491;32;20152;-62
2021/10/31 02:39:38;;;;;;;452.67;430.10;;;9.70;99.90;;;;;;4388670;32;20665;-62
2021/10/31 02:42:06;;;;;;;448.67;426.37;;;9.70;99.90;;;;;;4376856;32;20148;-62
2021/10/31 02:44:33;;;;;;;437.70;415.63;;;9.70;99.90;;;;;;4376316;32;20725;-62
2021/10/31 02:47:01;;;;;;;443.40;421.07;;;9.70;99.90;;;;;;4375832;32;20182;-62
2021/10/31 02:49:29;;;;;;;446.17;423.83;;;9.70;99.90;;;;;;4383906;32;20496;-62
2021/10/31 02:52:01;;;;;;;444.60;422.47;;;9.70;99.90;;;;;;4389041;32;20165;-62
2021/10/31 02:54:45;;;;;;;434.13;412.30;;;9.70;99.90;;;;;;4377111;32;20477;-62
2021/10/31 02:57:15;;;;;;;441.50;419.63;;;9.70;99.90;;;;;;4377257;32;20155;-62
2021/10/31 02:59:48;;;;;;;441.40;419.97;;;9.70;99.90;;;;;;4376388;32;20561;-62
2021/10/31 03:02:16;;;;;;;423.37;401.77;;;9.70;99.90;;;;;;4376287;32;20174;-62
2021/10/31 03:04:44;;;;;;;449.07;427.40;;;9.70;99.90;;;;;;4377103;32;20187;-62
2021/10/31 03:07:12;;;;;;;445.77;423.67;;;9.70;99.90;;;;;;4376266;32;20498;-62
2021/10/31 03:09:39;;;;;;;448.77;426.30;;;9.70;99.90;;;;;;4375512;32;20144;-62
2021/10/31 03:12:10;;;;;;;448.17;426.23;;;9.70;99.90;;;;;;4375610;32;20509;-62
2021/10/31 03:14:38;;;;;;;455.57;433.77;;;9.70;99.90;;;;;;4375845;32;20161;-62
2021/10/31 03:17:06;;;;;;;467.07;443.73;;;9.70;99.90;;;;;;4375517;32;20223;-62
2021/10/31 03:19:33;;;;;;;442.27;420.63;;;9.70;99.90;;;;;;4380642;32;20210;-62
2021/10/31 03:22:00;;;;;;;456.90;434.07;;;9.70;99.90;;;;;;4389218;32;20173;-62
2021/10/31 03:24:27;;;;;;;458.90;436.83;;;9.60;99.90;;;;;;4389407;32;20145;-62
2021/10/31 03:26:54;;;;;;;431.63;411.17;;;9.60;99.90;;;;;;4390343;32;20229;-62
2021/10/31 03:29:24;;;;;;;426.83;405.80;;;9.60;99.90;;;;;;4387910;32;20149;-62
2021/10/31 03:31:52;;;;;;;458.13;435.53;;;9.60;99.90;;;;;;4375262;32;20152;-62
2021/10/31 03:34:22;;;;;;;432.93;412.07;;;9.70;99.90;;;;;;4376524;32;20520;-62
2021/10/31 03:36:49;;;;;;;454.93;432.53;;;9.70;99.90;;;;;;4376952;32;20167;-62
2021/10/31 03:39:20;;;;;;;432.40;411.40;;;9.60;99.90;;;;;;4375623;32;20152;-62
2021/10/31 03:41:46;;;;;;;423.03;403.17;;;9.60;99.90;;;;;;4376562;32;20266;-62
2021/10/31 03:44:15;;;;;;;444.97;422.63;;;9.60;99.90;;;;;;4375220;32;20188;-62
2021/10/31 03:46:42;;;;;;;439.77;417.97;;;9.60;99.90;;;;;;4376509;32;20183;-62
2021/10/31 03:49:11;;;;;;;455.73;433.60;;;9.70;99.90;;;;;;4375204;32;20571;-62
2021/10/31 03:51:38;;;;;;;411.43;391.43;;;9.60;99.90;;;;;;4375838;32;20161;-62
2021/10/31 03:54:05;;;;;;;431.17;410.70;;;9.70;99.90;;;;;;4376522;32;20496;-62
2021/10/31 03:56:32;;;;;;;438.13;417.13;;;9.60;99.90;;;;;;4390207;32;20167;-62
2021/10/31 03:58:59;;;;;;;438.90;417.10;;;9.70;99.90;;;;;;4391824;32;20176;-62
2021/10/31 04:01:27;;;;;;;444.87;423.07;;;9.70;99.90;;;;;;4389506;32;20182;-62
2021/10/31 04:03:54;;;;;;;458.70;436.13;;;9.70;99.90;;;;;;4393820;32;20266;-62
2021/10/31 04:06:22;;;;;;;425.10;404.60;;;9.60;99.90;;;;;;4393447;32;20151;-62
2021/10/31 04:08:49;;;;;;;420.57;400.37;;;9.60;99.90;;;;;;4391833;32;20599;-62
2021/10/31 04:11:16;;;;;;;438.83;417.83;;;9.60;99.90;;;;;;4393047;32;20157;-62
2021/10/31 04:13:43;;;;;;;437.73;416.47;;;9.50;99.90;;;;;;4389504;32;20160;-62
2021/10/31 04:16:10;;;;;;;439.33;418.27;;;9.50;99.90;;;;;;4394563;32;20152;-62
2021/10/31 04:18:37;;;;;;;429.03;408.53;;;9.50;99.90;;;;;;4394246;32;20170;-62
2021/10/31 04:21:03;;;;;;;420.90;400.37;;;9.40;99.90;;;;;;4394574;32;20144;-62
2021/10/31 04:23:32;;;;;;;414.83;395.00;;;9.40;99.90;;;;;;4394291;32;20167;-62
2021/10/31 04:25:59;;;;;;;430.70;410.40;;;9.40;99.90;;;;;;4391315;32;20184;-62
2021/10/31 04:28:25;;;;;;;416.77;397.23;;;9.40;99.90;;;;;;4392870;32;20198;-62
2021/10/31 04:30:53;;;;;;;418.13;398.40;;;9.40;99.90;;;;;;4393639;32;20178;-62
2021/10/31 04:33:19;;;;;;;447.07;425.80;;;9.40;99.90;;;;;;4392673;32;20155;-62
2021/10/31 04:35:48;;;;;;;414.03;394.17;;;9.30;99.90;;;;;;4392403;32;20182;-62
2021/10/31 04:38:18;;;;;;;439.30;418.27;;;9.30;99.90;;;;;;4392631;32;20195;-62
2021/10/31 04:40:46;;;;;;;456.17;433.07;;;9.30;99.90;;;;;;4394169;32;20199;-62
2021/10/31 04:43:13;;;;;;;417.23;397.80;;;9.40;99.90;;;;;;4394172;32;20187;-62
2021/10/31 04:45:42;;;;;;;440.83;419.93;;;9.30;99.90;;;;;;4392526;32;20164;-62
2021/10/31 04:48:10;;;;;;;430.33;409.43;;;9.30;99.90;;;;;;4392404;32;20472;-62
2021/10/31 04:50:37;;;;;;;422.20;401.87;;;9.30;99.90;;;;;;4393953;32;20185;-62
2021/10/31 04:53:07;;;;;;;427.27;407.27;;;9.30;99.90;;;;;;4391908;32;20186;-61
2021/10/31 04:55:34;;;;;;;427.90;407.53;;;9.30;99.90;;;;;;4392211;32;20212;-62
2021/10/31 04:58:03;;;;;;;420.10;399.80;;;9.30;99.90;;;;;;4390508;32;20179;-62
2021/10/31 05:00:29;;;;;;;430.33;409.37;;;9.30;99.90;;;;;;4392264;32;20212;-62
2021/10/31 05:02:57;;;;;;;429.77;409.30;;;9.20;99.90;;;;;;4391729;32;20236;-62
2021/10/31 05:05:24;;;;;;;426.10;405.83;;;9.30;99.90;;;;;;4381413;32;20584;-62
2021/10/31 05:07:54;;;;;;;428.43;408.00;;;9.30;99.90;;;;;;4377774;32;20186;-62
2021/10/31 05:10:22;;;;;;;426.90;406.60;;;9.20;99.90;;;;;;4377058;32;20204;-62
2021/10/31 05:12:49;;;;;;;412.43;392.53;;;9.20;99.90;;;;;;4376545;32;20136;-62
2021/10/31 05:15:17;;;;;;;406.10;386.70;;;9.20;99.90;;;;;;4377699;32;20149;-62
2021/10/31 05:17:45;;;;;;;399.47;380.50;;;9.20;99.90;;;;;;4377948;32;20168;-62
2021/10/31 05:20:13;;;;;;;416.50;396.70;;;9.10;99.90;;;;;;4376981;32;20149;-61
2021/10/31 05:22:41;;;;;;;428.33;407.83;;;9.20;99.90;;;;;;4377342;32;20224;-62
2021/10/31 05:25:10;;;;;;;435.10;414.00;;;9.10;99.90;;;;;;4376673;32;20223;-62
2021/10/31 05:27:37;;;;;;;421.00;401.00;;;9.10;99.90;;;;;;4376843;32;20204;-62
2021/10/31 05:30:05;;;;;;;412.33;392.53;;;9.10;99.90;;;;;;4377735;32;20167;-62
2021/10/31 05:32:35;;;;;;;411.30;392.20;;;9.10;99.90;;;;;;4376982;32;20174;-62
2021/10/31 05:35:02;;;;;;;433.33;412.57;;;9.10;99.90;;;;;;4377521;32;20218;-62
2021/10/31 05:37:34;;;;;;;414.13;394.40;;;9.10;99.90;;;;;;4376549;32;20175;-61
2021/10/31 05:40:02;;;;;;;416.23;396.47;;;9.10;99.90;;;;;;4377567;32;20564;-62
2021/10/31 05:42:29;;;;;;;409.43;389.63;;;9.00;99.90;;;;;;4392412;32;20193;-62
2021/10/31 05:44:56;;;;;;;426.20;405.67;;;9.10;99.90;;;;;;4386774;32;20200;-62
2021/10/31 05:47:23;;;;;;;423.47;403.03;;;9.00;99.90;;;;;;4377194;32;20191;-62
2021/10/31 05:49:52;;;;;;;417.80;397.30;;;9.10;99.90;;;;;;4378138;32;20150;-62
2021/10/31 05:52:19;;;;;;;405.03;386.07;;;9.00;99.90;;;;;;4377495;32;20609;-62
2021/10/31 05:54:46;;;;;;;409.43;389.87;;;9.00;99.90;;;;;;4377044;32;20205;-62
2021/10/31 05:57:13;;;;;;;422.40;402.00;;;8.90;99.90;;;;;;4377131;32;20155;-62
2021/10/31 05:59:40;;;;;;;415.97;395.73;;;8.90;99.90;;;;;;4376956;32;20171;-62
2021/10/31 06:02:09;;;;;;;444.47;422.93;;;8.90;99.90;;;;;;4384879;32;20194;-62
2021/10/31 06:04:39;;;;;;;423.57;403.20;;;9.00;99.90;;;;;;4390568;32;20204;-62
2021/10/31 06:07:07;;;;;;;415.70;395.17;;;9.00;99.90;;;;;;4391018;32;20186;-62
2021/10/31 06:09:35;;;;;;;422.20;401.70;;;9.00;99.90;;;;;;4391306;32;20466;-62
2021/10/31 06:12:03;;;;;;;420.40;399.63;;;9.00;99.90;;;;;;4392156;32;20161;-62
2021/10/31 06:14:30;;;;;;;422.73;402.57;;;9.00;99.90;;;;;;4391710;32;20203;-62
2021/10/31 06:16:57;;;;;;;411.70;391.67;;;9.00;99.90;;;;;;4391812;32;20592;-62
2021/10/31 06:19:24;;;;;;;412.53;392.47;;;8.90;99.90;;;;;;4391079;32;20232;-62
2021/10/31 06:21:51;;;;;;;421.73;401.20;;;8.90;99.90;;;;;;4390760;32;20159;-62
2021/10/31 06:24:19;;;;;;;399.67;380.00;;;9.00;99.90;;;;;;4390391;32;20194;-62
2021/10/31 06:26:46;;;;;;;415.07;395.13;;;9.00;99.90;;;;;;4390013;32;20187;-62
2021/10/31 06:29:13;;;;;;;419.23;399.03;;;9.00;99.90;;;;;;4390145;32;20152;-62
2021/10/31 06:31:41;;;;;;;407.40;386.63;;;9.00;99.90;;;;;;4375580;32;20167;-62
2021/10/31 06:34:08;;;;;;;426.07;404.80;;;9.00;99.90;;;;;;4377355;32;20484;-62
2021/10/31 06:36:35;;;;;;;399.13;379.20;;;8.90;99.90;;;;;;4375748;32;20200;-62
2021/10/31 06:39:02;;;;;;;407.73;387.37;;;9.00;99.90;;;;;;4378232;32;20181;-62
2021/10/31 06:41:30;;;;;;;416.13;395.73;;;9.00;99.90;;;;;;4375748;32;20566;-62
2021/10/31 06:44:00;;;;;;;426.80;405.63;;;9.00;99.90;;;;;;4377373;32;20188;-62
2021/10/31 06:46:27;;;;;;;432.50;411.27;;;9.10;99.90;;;;;;4375699;32;20562;-62
2021/10/31 06:48:54;;;;;;;413.23;393.00;;;9.00;99.90;;;;;;4382732;32;20156;-62
2021/10/31 06:51:22;;;;;;;434.37;412.90;;;9.00;99.90;;;;;;4378087;32;20160;-62
2021/10/31 06:53:49;;;;;;;417.17;396.73;;;9.00;99.90;;;;;;4380222;32;20160;-62
2021/10/31 06:56:16;;;;;;;409.60;389.37;;;9.00;99.90;;;;;;4377272;32;20213;-62
2021/10/31 06:58:45;;;;;;;432.30;411.27;;;9.00;99.90;;;;;;4382335;32;20150;-62
2021/10/31 07:01:16;;;;;;;421.50;401.17;;;9.10;99.90;;;;;;4382352;32;20185;-62
2021/10/31 07:03:45;;;;;;;449.17;426.63;;;9.10;99.90;;;;;;4382698;32;20210;-62
2021/10/31 07:06:15;;;;;;;437.83;416.20;;;9.10;99.90;;;;;;4383211;32;20164;-62
2021/10/31 07:12:23;;;;;;;416.17;396.63;;;9.20;99.90;;;;;;4278746;33;20169;-62
2021/10/31 07:14:52;;;;;;;427.23;407.00;;;9.20;99.90;;;;;;4275663;33;20196;-62
2021/10/31 07:17:18;;;;;;;420.20;399.73;;;9.30;99.90;;;;;;4278484;33;20175;-62
2021/10/31 07:19:48;;;;;;;425.93;405.40;;;9.30;99.90;;;;;;4280991;33;20178;-62
2021/10/31 07:22:18;;;;;;;443.43;421.77;;;9.30;99.90;;;;;;4278241;33;20172;-62
2021/10/31 07:24:46;;;;;;;433.77;412.93;;;9.40;99.90;;;;;;4277420;33;20279;-62
2021/10/31 07:27:13;;;;;;;433.93;412.97;;;9.50;99.90;;;;;;4272091;33;20180;-62
2021/10/31 07:29:40;;;;;;;422.30;401.83;;;9.50;99.90;;;;;;4275552;33;20519;-62
2021/10/31 07:32:09;;;;;;;430.73;409.70;;;9.60;99.90;;;;;;4275086;33;20229;-62
2021/10/31 07:34:36;;;;;;;462.50;439.60;;;9.70;99.90;;;;;;4287370;33;20252;-62
2021/10/31 07:37:03;;;;;;;443.33;421.80;;;9.70;99.90;;;;;;4350061;32;20165;-62
2021/10/31 07:39:30;;;;;;;426.63;405.93;;;9.70;99.90;;;;;;4349344;33;20192;-62
2021/10/31 07:41:57;;;;;;;433.07;411.83;;;9.80;99.90;;;;;;4349273;33;20229;-62
2021/10/31 07:44:24;;;;;;;449.40;426.90;;;9.80;99.90;;;;;;4348297;32;20208;-62
2021/10/31 07:46:51;;;;;;;434.17;412.67;;;9.80;99.90;;;;;;4349070;33;20190;-62
2021/10/31 07:49:19;;;;;;;441.10;419.40;;;9.90;99.90;;;;;;4363178;32;20446;-62
2021/10/31 07:51:46;;;;;;;445.13;423.00;;;9.90;99.90;;;;;;4382117;32;20170;-62
2021/10/31 07:54:13;;;;;;;434.60;413.90;;;10.00;99.90;;;;;;4385019;32;20497;-62
2021/10/31 07:56:40;;;;;;;445.57;424.03;;;10.00;99.90;;;;;;4382422;32;20208;-62
2021/10/31 07:59:07;;;;;;;438.87;417.30;;;10.10;99.90;;;;;;4382738;32;20519;-61
2021/10/31 08:01:34;;;;;;;437.00;415.80;;;10.20;99.90;;;;;;4385361;32;20179;-62
2021/10/31 08:04:04;;;;;;;429.73;409.27;;;10.20;99.90;;;;;;4382936;32;20259;-62
2021/10/31 08:06:32;;;;;;;422.60;402.37;;;10.30;99.90;;;;;;4383461;32;20220;-61
2021/10/31 08:08:59;;;;;;;443.90;421.97;;;10.40;99.90;;;;;;4381257;32;20517;-62
2021/10/31 08:11:26;;;;;;;444.43;423.10;;;10.50;99.90;;;;;;4382587;32;20152;-62
2021/10/31 08:13:53;;;;;;;418.93;398.60;;;10.60;99.90;;;;;;4383582;32;20145;-61
2021/10/31 08:16:22;;;;;;;437.03;416.07;;;10.70;99.90;;;;;;4382499;32;20675;-62
2021/10/31 08:18:49;;;;;;;419.13;398.77;;;10.70;99.90;;;;;;4380546;32;20182;-62
2021/10/31 08:21:16;;;;;;;424.73;405.00;;;10.80;99.90;;;;;;4380152;32;20178;-62
2021/10/31 08:23:44;;;;;;;440.73;419.70;;;10.90;99.90;;;;;;4381159;32;20212;-62
2021/10/31 08:26:11;;;;;;;424.60;404.60;;;10.90;99.90;;;;;;4382416;32;20617;-62
2021/10/31 08:28:41;;;;;;;421.67;401.83;;;11.00;99.90;;;;;;4383893;32;20206;-62
2021/10/31 08:31:08;;;;;;;445.60;424.37;;;11.10;99.90;;;;;;4387465;32;20209;-61
2021/10/31 08:33:37;;;;;;;430.30;409.57;;;11.20;99.90;;;;;;4386555;32;20635;-61
2021/10/31 08:36:07;;;;;;;415.27;395.57;;;11.20;99.90;;;;;;4383647;32;20184;-62
2021/10/31 08:38:36;;;;;;;433.07;412.50;;;11.20;99.90;;;;;;4381246;32;20186;-62
2021/10/31 08:41:05;;;;;;;423.23;403.33;;;11.30;99.90;;;;;;4383213;32;20190;-62
2021/10/31 08:43:33;;;;;;;432.23;411.47;;;11.30;99.90;;;;;;4381529;32;20179;-62
2021/10/31 08:46:01;;;;;;;414.23;394.30;;;11.40;99.90;;;;;;4383435;32;20261;-62
2021/10/31 08:48:28;;;;;;;417.50;397.70;;;11.40;99.90;;;;;;4385765;32;20218;-62
2021/10/31 08:50:55;;;;;;;393.30;375.03;;;11.40;99.90;;;;;;4379604;32;20718;-62
2021/10/31 08:53:27;;;;;;;423.10;403.00;;;11.30;99.90;;;;;;4380423;32;20619;-62
2021/10/31 08:55:54;;;;;;;411.23;391.93;;;11.40;99.90;;;;;;4384860;32;20176;-62
2021/10/31 08:58:23;;;;;;;420.17;400.90;;;11.40;99.90;;;;;;4383161;32;20235;-62
2021/10/31 09:00:53;;;;;;;432.03;411.90;;;11.40;99.90;;;;;;4384785;32;20157;-62
2021/10/31 09:03:22;;;;;;;427.77;407.90;;;11.50;99.90;;;;;;4383487;32;20585;-62
2021/10/31 09:05:49;;;;;;;432.43;412.47;;;11.60;99.90;;;;;;4383375;32;20243;-62
2021/10/31 09:08:16;;;;;;;395.33;377.17;;;11.70;99.90;;;;;;4383057;32;20190;-62
2021/10/31 09:10:43;;;;;;;395.10;377.27;;;11.70;99.90;;;;;;4383377;32;20211;-62
2021/10/31 09:13:11;;;;;;;401.90;383.57;;;11.60;99.90;;;;;;4384039;32;20224;-62
2021/10/31 09:15:39;;;;;;;407.00;388.27;;;11.70;99.90;;;;;;4382448;32;20206;-62
2021/10/31 09:18:08;;;;;;;415.63;396.63;;;11.70;99.90;;;;;;4383639;32;20208;-62
2021/10/31 09:20:36;;;;;;;395.53;377.57;;;11.80;99.90;;;;;;4382987;32;20580;-62
2021/10/31 09:23:06;;;;;;;347.70;331.93;;;12.00;99.90;;;;;;4383007;32;20230;-62
2021/10/31 09:25:33;;;;;;;405.00;386.67;;;11.90;99.90;;;;;;4386850;32;20519;-62
2021/10/31 09:28:01;;;;;;;411.93;393.20;;;12.10;99.90;;;;;;4384382;32;20160;-62
2021/10/31 09:30:30;;;;;;;419.93;401.10;;;12.10;99.90;;;;;;4379909;32;20525;-62
2021/10/31 09:32:59;;;;;;;337.17;322.30;;;12.20;99.90;;;;;;4384061;32;20231;-62
2021/10/31 09:35:29;;;;;;;342.57;327.57;;;12.20;99.90;;;;;;4385585;32;20190;-62
2021/10/31 09:37:58;;;;;;;366.07;350.30;;;12.30;99.90;;;;;;4386411;32;20160;-62
2021/10/31 09:40:26;;;;;;;352.63;337.63;;;12.40;99.90;;;;;;4376212;32;20166;-62
2021/10/31 09:42:54;;;;;;;378.30;361.87;;;12.50;99.90;;;;;;4380486;32;20156;-62
2021/10/31 09:45:24;;;;;;;346.73;331.73;;;12.40;99.90;;;;;;4390162;32;20170;-62
2021/10/31 09:47:54;;;;;;;344.93;330.37;;;12.50;99.90;;;;;;4387366;32;20543;-62
2021/10/31 09:50:27;;;;;;;345.47;331.30;;;12.60;99.90;;;;;;4385585;32;20179;-62
2021/10/31 09:52:54;;;;;;;324.60;310.83;;;12.70;99.90;;;;;;4385738;32;20183;-62
2021/10/31 09:55:22;;;;;;;331.73;317.17;;;12.80;99.90;;;;;;4388233;32;20160;-62
2021/10/31 09:57:50;;;;;;;338.33;323.93;;;13.00;99.90;;;;;;4385817;32;20176;-63
2021/10/31 10:00:19;;;;;;;307.90;294.97;;;13.20;99.90;;;;;;4379017;32;20167;-63
2021/10/31 10:03:00;;;;;;;264.43;253.47;;;13.30;99.90;;;;;;4383539;32;20191;-61
2021/10/31 10:05:30;;;;;;;267.70;256.60;;;13.40;99.90;;;;;;4386469;32;20204;-61
2021/10/31 10:08:12;;;;;;;208.10;199.33;;;13.70;99.90;;;;;;4379274;32;20523;-61
2021/10/31 10:10:44;;;;;;;167.17;160.03;;;13.70;99.90;;;;;;4380812;32;20155;-62
2021/10/31 10:13:22;;;;;;;158.33;151.50;;;13.80;99.90;;;;;;4379881;32;20157;-63
2021/10/31 10:15:50;;;;;;;157.40;150.80;;;13.80;99.90;;;;;;4382384;32;20612;-61
2021/10/31 10:18:32;;;;;;;178.77;171.43;;;13.80;99.90;;;;;;4381882;32;20190;-61
2021/10/31 10:21:18;;;;;;;151.47;145.07;;;13.90;99.90;;;;;;4384274;32;20162;-62
2021/10/31 10:23:47;;;;;;;144.63;138.40;;;13.90;99.90;;;;;;4383125;32;20172;-63
2021/10/31 10:26:14;;;;;;;146.30;140.00;;;13.90;99.90;;;;;;4385430;32;20161;-63
2021/10/31 10:28:41;;;;;;;140.67;134.90;;;13.90;99.90;;;;;;4376282;32;20200;-63
2021/10/31 10:31:22;;;;;;;128.77;123.17;;;13.80;99.90;;;;;;4388345;32;20183;-63
2021/10/31 10:33:50;;;;;;;123.07;117.97;;;13.90;99.90;;;;;;4378771;32;20209;-62
2021/10/31 10:36:20;;;;;;;124.50;119.10;;;14.00;99.90;;;;;;4377466;32;20227;-63
2021/10/31 10:39:00;;;;;;;136.07;130.50;;;14.10;99.90;;;;;;4385153;32;20170;-64
2021/10/31 10:41:38;;;;;;;124.60;119.53;;;14.20;99.90;;;;;;4388895;32;20215;-61
2021/10/31 10:44:17;;;;;;;122.87;117.70;;;14.20;99.90;;;;;;4378262;32;20164;-62
2021/10/31 10:46:44;;;;;;;122.80;117.53;;;14.20;99.90;;;;;;4384227;32;20238;-62
2021/10/31 10:49:16;;;;;;;124.40;119.03;;;14.20;99.90;;;;;;4384129;32;20149;-64
2021/10/31 10:51:46;;;;;;;125.17;120.00;;;14.20;99.90;;;;;;4385954;32;20209;-64
2021/10/31 10:54:13;;;;;;;120.20;115.23;;;14.20;99.90;;;;;;4382306;32;20168;-62
2021/10/31 10:56:59;;;;;;;115.67;110.87;;;14.40;99.90;;;;;;4382864;32;20182;-63
2021/10/31 10:59:27;;;;;;;109.13;104.73;;;14.40;99.90;;;;;;4380913;32;20219;-61
2021/10/31 11:02:11;;;;;;;111.63;106.80;;;14.40;99.90;;;;;;4382617;32;20617;-63
2021/10/31 11:04:39;;;;;;;115.23;110.47;;;14.30;99.90;;;;;;4385806;32;20274;-62
2021/10/31 11:07:08;;;;;;;120.60;115.63;;;14.30;99.90;;;;;;4381463;32;20160;-64
2021/10/31 11:09:40;;;;;;;112.43;107.80;;;14.30;99.90;;;;;;4384136;32;20188;-64
2021/10/31 11:12:32;;;;;;;119.73;114.93;;;14.30;99.90;;;;;;4383778;32;20592;-64
2021/10/31 11:15:03;;;;;;;111.00;106.40;;;14.30;99.90;;;;;;4383591;32;20675;-63
2021/10/31 11:17:31;;;;;;;109.97;105.23;;;14.30;99.90;;;;;;4379720;32;20172;-62
2021/10/31 11:19:59;;;;;;;111.00;106.13;;;14.30;99.90;;;;;;4377138;32;20258;-64
2021/10/31 11:22:29;;;;;;;123.57;118.40;;;14.30;99.90;;;;;;4382353;32;20235;-64
2021/10/31 11:24:57;;;;;;;116.20;111.50;;;14.40;99.90;;;;;;4377847;32;20157;-64
2021/10/31 11:27:27;;;;;;;107.73;103.13;;;14.40;99.90;;;;;;4391439;32;20171;-62
2021/10/31 11:29:55;;;;;;;101.77;97.63;;;14.30;99.90;;;;;;4390145;32;20238;-64
2021/10/31 11:32:24;;;;;;;107.37;102.83;;;14.30;99.90;;;;;;4382802;32;20220;-64
2021/10/31 11:34:53;;;;;;;109.63;104.93;;;14.20;99.90;;;;;;4389263;32;20203;-63
2021/10/31 11:37:22;;;;;;;107.03;102.63;;;14.10;99.90;;;;;;4380569;32;20176;-62
2021/10/31 11:39:55;;;;;;;113.70;108.97;;;14.00;99.90;;;;;;4384924;32;20168;-62
2021/10/31 11:42:23;;;;;;;109.90;105.37;;;13.90;99.90;;;;;;4390425;32;20175;-63
2021/10/31 11:45:07;;;;;;;108.37;103.93;;;13.80;99.90;;;;;;4382236;32;20518;-62
2021/10/31 11:47:35;;;;;;;118.00;113.17;;;13.70;99.90;;;;;;4381492;32;20152;-64
2021/10/31 11:50:15;;;;;;;108.90;104.30;;;13.70;99.90;;;;;;4381605;32;20161;-62
2021/10/31 11:52:53;;;;;;;120.17;115.23;;;13.60;99.90;;;;;;4382147;32;20824;-62
2021/10/31 11:55:59;;;;;;;110.83;106.20;;;13.60;99.90;;;;;;4378887;32;20161;-62
2021/10/31 11:58:58;;;;;;;110.53;105.97;;;13.60;99.90;;;;;;4357983;32;20667;-63
2021/10/31 12:02:11;;;;;;;111.93;107.23;;;13.60;99.90;;;;;;4325788;33;20172;-63
2021/10/31 12:07:43;;;;;;;104.83;100.53;;;13.70;99.90;;;;;;4301406;33;20272;-63
2021/10/31 12:10:33;;;;;;;104.37;99.97;;;13.70;99.90;;;;;;4306531;33;20640;-62
2021/10/31 12:13:26;;;;;;;105.87;101.30;;;13.70;99.90;;;;;;4302366;33;20630;-64
2021/10/31 12:16:03;;;;;;;108.80;104.23;;;13.80;99.90;;;;;;4301856;33;20187;-64
2021/10/31 12:18:44;;;;;;;110.27;105.77;;;13.80;99.90;;;;;;4305976;33;20501;-68
2021/10/31 12:21:44;;;;;;;107.10;102.77;;;13.90;99.90;;;;;;4305281;33;20648;-64
2021/10/31 12:31:18;;;;;;;107.73;103.30;;;13.90;99.90;;;;;;4231108;33;20196;-62
2021/10/31 12:34:11;;;;;;;105.20;100.80;;;14.00;99.90;;;;;;4240399;33;20524;-63
2021/10/31 12:36:39;;;;;;;110.07;105.27;;;14.20;99.90;;;;;;4242542;33;20242;-63
2021/10/31 12:39:40;;;;;;;107.93;103.53;;;14.40;99.90;;;;;;4269532;33;20197;-62
2021/10/31 12:42:14;;;;;;;108.07;103.60;;;14.50;99.90;;;;;;4320249;33;20188;-65
2021/10/31 12:44:43;;;;;;;112.03;107.30;;;14.60;99.90;;;;;;4326182;33;20221;-64
2021/10/31 12:47:15;;;;;;;106.67;102.23;;;14.70;99.90;;;;;;4326487;33;20173;-64
2021/10/31 12:49:44;;;;;;;106.37;102.03;;;14.70;99.90;;;;;;4326675;33;20314;-64